createdAt,value
2024-02-15T00:01:01.163Z,5.68
2024-02-15T00:03:28.160Z,5.64
2024-02-15T00:05:55.169Z,5.67
2024-02-15T00:08:22.158Z,5.64
2024-02-15T00:10:49.152Z,5.69
2024-02-15T00:13:16.089Z,5.74
2024-02-15T00:15:42.888Z,5.75
2024-02-15T00:18:09.826Z,5.67
2024-02-15T00:20:36.835Z,5.59
2024-02-15T00:23:03.706Z,5.55
2024-02-15T00:25:31.937Z,5.52
2024-02-15T00:28:00.653Z,5.56
2024-02-15T00:30:28.411Z,5.54
2024-02-15T00:32:55.354Z,5.62
2024-02-15T00:35:22.916Z,5.59
2024-02-15T00:37:51.429Z,5.49
2024-02-15T00:40:18.335Z,5.54
2024-02-15T00:42:45.321Z,5.43
2024-02-15T00:45:12.671Z,5.42
2024-02-15T00:47:39.799Z,5.47
2024-02-15T00:50:07.452Z,5.48
2024-02-15T00:52:35.229Z,5.45
2024-02-15T00:55:02.048Z,5.42
2024-02-15T00:57:28.735Z,5.45
2024-02-15T00:59:55.616Z,5.38
2024-02-15T01:02:23.004Z,5.41
2024-02-15T01:04:50.514Z,5.41
2024-02-15T01:07:17.171Z,5.37
2024-02-15T01:09:44.022Z,5.12
2024-02-15T01:12:11.340Z,5.21
2024-02-15T01:14:38.726Z,5.25
2024-02-15T01:17:05.561Z,5.32
2024-02-15T01:19:32.273Z,5.33
2024-02-15T01:22:00.700Z,5.27
2024-02-15T01:24:27.792Z,5.04
2024-02-15T01:26:54.775Z,5.14
2024-02-15T01:29:21.790Z,5.17
2024-02-15T01:31:48.682Z,5.18
2024-02-15T01:34:15.647Z,4.99
2024-02-15T01:36:42.557Z,5.03
2024-02-15T01:39:09.601Z,4.94
2024-02-15T01:41:36.549Z,4.95
2024-02-15T01:44:03.959Z,5.04
2024-02-15T01:46:31.008Z,5.03
2024-02-15T01:48:58.237Z,4.89
2024-02-15T01:51:27.931Z,4.97
2024-02-15T01:53:56.408Z,4.88
2024-02-15T01:56:24.849Z,4.86
2024-02-15T01:58:51.773Z,4.93
2024-02-15T02:01:18.875Z,4.87
2024-02-15T02:03:46.228Z,4.87
2024-02-15T02:06:13.106Z,4.89
2024-02-15T02:08:39.941Z,4.95
2024-02-15T02:11:07.461Z,4.88
2024-02-15T02:13:34.354Z,4.82
2024-02-15T02:16:01.367Z,4.87
2024-02-15T02:18:28.367Z,4.80
2024-02-15T02:20:55.857Z,4.72
2024-02-15T02:23:27.284Z,4.77
2024-02-15T02:25:56.734Z,4.78
2024-02-15T02:28:23.657Z,4.75
2024-02-15T02:30:51.249Z,4.76
2024-02-15T02:33:23.381Z,4.77
2024-02-15T02:35:50.522Z,4.75
2024-02-15T02:38:17.710Z,4.76
2024-02-15T02:40:44.586Z,4.66
2024-02-15T02:43:11.606Z,4.57
2024-02-15T02:45:38.928Z,4.51
2024-02-15T02:48:06.589Z,4.45
2024-02-15T02:50:33.998Z,4.52
2024-02-15T02:53:00.965Z,4.50
2024-02-15T02:55:31.917Z,4.54
2024-02-15T02:57:58.718Z,4.51
2024-02-15T03:00:25.460Z,4.33
2024-02-15T03:02:52.336Z,4.41
2024-02-15T03:05:22.257Z,4.47
2024-02-15T03:07:49.920Z,4.50
2024-02-15T03:10:16.720Z,4.53
2024-02-15T03:12:49.176Z,4.59
2024-02-15T03:15:18.240Z,4.55
2024-02-15T03:17:48.663Z,4.55
2024-02-15T03:20:22.407Z,4.47
2024-02-15T03:22:59.693Z,4.39
2024-02-15T03:25:27.938Z,4.28
2024-02-15T03:27:56.866Z,4.43
2024-02-15T03:30:26.903Z,4.25
2024-02-15T03:32:54.755Z,4.33
2024-02-15T03:35:24.370Z,4.15
2024-02-15T03:37:52.231Z,4.14
2024-02-15T03:40:23.489Z,4.12
2024-02-15T03:42:53.114Z,4.08
2024-02-15T03:45:19.916Z,4.06
2024-02-15T03:47:47.658Z,4.01
2024-02-15T03:50:16.007Z,4.20
2024-02-15T03:52:43.287Z,4.14
2024-02-15T03:55:10.125Z,4.20
2024-02-15T03:57:41.938Z,4.23
2024-02-15T04:00:11.637Z,4.19
2024-02-15T04:02:41.582Z,4.05
2024-02-15T04:05:10.394Z,3.79
2024-02-15T04:07:38.035Z,3.92
2024-02-15T04:10:09.182Z,3.94
2024-02-15T04:12:36.306Z,4.05
2024-02-15T04:15:13.858Z,4.01
2024-02-15T04:17:42.445Z,3.96
2024-02-15T04:20:10.725Z,3.81
2024-02-15T04:22:43.967Z,3.70
2024-02-15T04:25:11.765Z,3.79
2024-02-15T04:27:39.043Z,3.89
2024-02-15T04:30:08.753Z,3.77
2024-02-15T04:32:37.349Z,3.85
2024-02-15T04:35:07.670Z,3.89
2024-02-15T04:37:36.085Z,3.90
2024-02-15T04:40:09.445Z,3.74
2024-02-15T04:42:40.777Z,3.84
2024-02-15T04:45:09.879Z,3.78
2024-02-15T04:47:37.205Z,3.70
2024-02-15T04:50:07.185Z,3.80
2024-02-15T04:52:34.559Z,3.78
2024-02-15T04:55:01.447Z,3.76
2024-02-15T04:57:31.292Z,3.79
2024-02-15T04:59:59.663Z,3.88
2024-02-15T05:02:26.415Z,3.77
2024-02-15T05:04:57.893Z,3.61
2024-02-15T05:07:24.981Z,3.68
2024-02-15T05:09:53.848Z,3.57
2024-02-15T05:12:27.170Z,3.60
2024-02-15T05:14:54.908Z,3.61
2024-02-15T05:17:23.427Z,3.69
2024-02-15T05:19:51.518Z,3.55
2024-02-15T05:22:19.914Z,3.45
2024-02-15T05:24:46.910Z,3.56
2024-02-15T05:27:14.061Z,3.42
2024-02-15T05:29:44.442Z,3.46
2024-02-15T05:32:11.802Z,3.48
2024-02-15T05:34:41.657Z,3.43
2024-02-15T05:37:08.936Z,3.46
2024-02-15T05:39:35.729Z,3.44
2024-02-15T05:42:02.754Z,3.38
2024-02-15T05:44:29.735Z,3.46
2024-02-15T05:46:57.424Z,3.36
2024-02-15T05:49:25.562Z,3.46
2024-02-15T05:51:54.705Z,3.46
2024-02-15T05:54:23.870Z,3.47
2024-02-15T05:56:53.317Z,3.42
2024-02-15T05:59:21.540Z,3.41
2024-02-15T06:01:52.339Z,3.35
2024-02-15T06:04:19.504Z,3.38
2024-02-15T06:06:51.745Z,3.41
2024-02-15T06:09:18.835Z,3.43
2024-02-15T06:11:46.912Z,3.43
2024-02-15T06:14:13.993Z,3.44
2024-02-15T06:16:45.548Z,3.29
2024-02-15T06:19:12.505Z,3.38
2024-02-15T06:21:39.262Z,3.45
2024-02-15T06:24:06.244Z,3.22
2024-02-15T06:26:34.916Z,3.29
2024-02-15T06:29:20.235Z,3.29
2024-02-15T06:32:05.446Z,3.28
2024-02-15T06:34:51.174Z,3.31
2024-02-15T06:37:55.564Z,3.37
2024-02-15T06:40:22.995Z,3.39
2024-02-15T06:42:49.928Z,3.36
2024-02-15T06:45:17.768Z,3.39
2024-02-15T06:47:47.574Z,3.34
2024-02-15T06:50:14.951Z,3.32
2024-02-15T06:52:44.830Z,3.32
2024-02-15T06:55:13.321Z,3.35
2024-02-15T06:57:43.169Z,3.26
2024-02-15T07:00:15.535Z,3.25
2024-02-15T07:02:45.793Z,3.22
2024-02-15T07:05:12.965Z,3.22
2024-02-15T07:07:40.383Z,3.24
2024-02-15T07:10:07.898Z,3.21
2024-02-15T07:12:34.671Z,3.32
2024-02-15T07:15:03.091Z,3.38
2024-02-15T07:17:30.480Z,3.48
2024-02-15T07:19:57.546Z,3.47
2024-02-15T07:22:24.489Z,3.46
2024-02-15T07:24:51.257Z,3.21
2024-02-15T07:27:19.577Z,3.43
2024-02-15T07:29:46.505Z,3.53
2024-02-15T07:32:13.363Z,3.58
2024-02-15T07:34:40.205Z,3.67
2024-02-15T07:37:08.518Z,3.62
2024-02-15T07:39:37.390Z,3.68
2024-02-15T07:42:05.873Z,3.75
2024-02-15T07:44:33.791Z,3.75
2024-02-15T07:47:03.429Z,3.89
2024-02-15T07:49:30.416Z,4.00
2024-02-15T07:51:57.336Z,4.08
2024-02-15T07:54:25.568Z,4.23
2024-02-15T07:56:53.051Z,4.24
2024-02-15T07:59:22.789Z,4.36
2024-02-15T08:01:51.316Z,4.21
2024-02-15T08:04:19.863Z,4.28
2024-02-15T08:06:46.917Z,4.23
2024-02-15T08:09:15.361Z,4.24
2024-02-15T08:11:42.458Z,4.22
2024-02-15T08:14:14.061Z,4.28
2024-02-15T08:16:42.802Z,4.31
2024-02-15T08:19:10.096Z,4.40
2024-02-15T08:21:38.638Z,4.47
2024-02-15T08:24:10.527Z,4.46
2024-02-15T08:26:42.217Z,4.61
2024-02-15T08:29:10.570Z,4.57
2024-02-15T08:31:37.602Z,4.75
2024-02-15T08:34:07.323Z,4.88
2024-02-15T08:36:34.394Z,4.91
2024-02-15T08:39:02.027Z,4.90
2024-02-15T08:41:29.478Z,4.78
2024-02-15T08:43:59.495Z,4.96
2024-02-15T08:46:28.115Z,5.06
2024-02-15T08:48:55.206Z,5.07
2024-02-15T08:51:24.714Z,5.11
2024-02-15T08:53:52.621Z,5.20
2024-02-15T08:56:19.642Z,5.17
2024-02-15T08:58:46.539Z,5.19
2024-02-15T09:01:14.824Z,5.31
2024-02-15T09:03:42.555Z,5.28
2024-02-15T09:06:09.676Z,5.28
2024-02-15T09:08:36.692Z,5.33
2024-02-15T09:11:06.171Z,5.31
2024-02-15T09:13:38.665Z,5.32
2024-02-15T09:16:06.257Z,5.33
2024-02-15T09:18:34.767Z,5.44
2024-02-15T09:21:01.903Z,5.46
2024-02-15T09:23:28.770Z,5.60
2024-02-15T09:25:55.637Z,5.60
2024-02-15T09:28:23.721Z,5.61
2024-02-15T09:30:52.947Z,5.67
2024-02-15T09:33:23.053Z,5.69
2024-02-15T09:35:50.032Z,5.76
2024-02-15T09:38:18.152Z,5.78
2024-02-15T09:40:45.565Z,5.85
2024-02-15T09:43:14.386Z,5.83
2024-02-15T09:45:41.346Z,5.91
2024-02-15T09:48:12.211Z,6.08
2024-02-15T09:50:44.655Z,6.17
2024-02-15T09:53:11.924Z,6.25
2024-02-15T09:55:42.789Z,6.25
2024-02-15T09:58:10.578Z,6.29
2024-02-15T10:00:37.747Z,6.35
2024-02-15T10:03:08.030Z,6.55
2024-02-15T10:05:36.044Z,6.61
2024-02-15T10:08:03.922Z,6.70
2024-02-15T10:10:30.846Z,6.64
2024-02-15T10:12:57.870Z,6.69
2024-02-15T10:15:39.366Z,6.65
2024-02-15T10:18:13.148Z,6.61
2024-02-15T10:20:41.824Z,6.61
2024-02-15T10:23:10.155Z,6.66
2024-02-15T10:25:41.940Z,6.63
2024-02-15T10:28:25.259Z,6.70
2024-02-15T10:30:54.168Z,6.69
2024-02-15T10:33:31.059Z,6.50
2024-02-15T10:36:09.431Z,6.79
2024-02-15T10:38:39.506Z,6.76
2024-02-15T10:41:07.906Z,6.76
2024-02-15T10:43:35.900Z,6.73
2024-02-15T10:46:04.051Z,6.77
2024-02-15T10:48:31.018Z,6.79
2024-02-15T10:51:01.903Z,6.88
2024-02-15T10:53:31.593Z,6.94
2024-02-15T10:56:12.609Z,6.93
2024-02-15T10:58:51.619Z,6.99
2024-02-15T11:01:19.570Z,7.02
2024-02-15T11:03:57.569Z,7.06
2024-02-15T11:06:30.649Z,7.16
2024-02-15T11:08:59.195Z,7.19
2024-02-15T11:11:26.846Z,7.23
2024-02-15T11:14:24.825Z,7.29
2024-02-15T11:16:51.821Z,7.33
2024-02-15T11:19:37.194Z,7.33
2024-02-15T11:22:44.976Z,7.31
2024-02-15T11:25:32.690Z,7.33
2024-02-15T11:28:21.241Z,7.37
2024-02-15T11:30:48.416Z,7.38
2024-02-15T11:33:32.189Z,7.38
2024-02-15T11:36:11.138Z,7.33
2024-02-15T11:38:42.727Z,7.34
2024-02-15T11:41:12.233Z,7.29
2024-02-15T11:43:51.320Z,7.31
2024-02-15T11:46:19.960Z,7.31
2024-02-15T11:48:47.538Z,7.30
2024-02-15T11:52:00.119Z,7.43
2024-02-15T11:54:27.197Z,7.33
2024-02-15T11:57:15.035Z,7.37
2024-02-15T12:00:03.724Z,7.32
2024-02-15T12:02:52.418Z,7.39
2024-02-15T12:05:38.138Z,7.54
2024-02-15T12:08:23.547Z,7.61
2024-02-15T12:11:21.921Z,7.61
2024-02-15T12:14:11.455Z,7.74
2024-02-15T12:16:56.881Z,7.81
2024-02-15T12:19:25.099Z,7.92
2024-02-15T12:21:53.401Z,8.00
2024-02-15T12:24:22.814Z,8.07
2024-02-15T12:26:49.843Z,8.09
2024-02-15T12:29:19.583Z,8.26
2024-02-15T12:31:46.827Z,8.38
2024-02-15T12:34:14.793Z,8.40
2024-02-15T12:36:43.597Z,8.41
2024-02-15T12:39:15.189Z,8.38
2024-02-15T12:41:51.329Z,8.46
2024-02-15T12:44:22.148Z,8.58
2024-02-15T12:46:56.754Z,8.74
2024-02-15T12:49:23.695Z,8.82
2024-02-15T12:51:56.050Z,8.79
2024-02-15T12:54:24.322Z,8.83
2024-02-15T12:56:54.239Z,9.00
2024-02-15T12:59:21.961Z,8.99
2024-02-15T13:01:48.861Z,9.04
2024-02-15T13:04:26.553Z,9.13
2024-02-15T13:06:53.554Z,9.23
2024-02-15T13:09:20.461Z,9.32
2024-02-15T13:11:48.229Z,9.50
2024-02-15T13:14:14.963Z,9.41
2024-02-15T13:16:44.090Z,9.52
2024-02-15T13:19:10.872Z,9.60
2024-02-15T13:21:37.678Z,9.68
2024-02-15T13:24:06.117Z,9.66
2024-02-15T13:26:35.209Z,9.75
2024-02-15T13:29:01.968Z,9.81
2024-02-15T13:31:28.677Z,10.01
2024-02-15T13:33:55.735Z,9.97
2024-02-15T13:36:23.245Z,10.05
2024-02-15T13:38:52.582Z,10.11
2024-02-15T13:41:19.898Z,10.14
2024-02-15T13:43:46.627Z,10.11
2024-02-15T13:46:13.427Z,10.08
2024-02-15T13:48:40.264Z,10.10
2024-02-15T13:51:10.430Z,10.17
2024-02-15T13:53:37.523Z,10.24
2024-02-15T13:56:04.475Z,10.27
2024-02-15T13:58:32.361Z,10.31
2024-02-15T14:01:00.703Z,10.24
2024-02-15T14:03:27.710Z,10.27
2024-02-15T14:05:54.616Z,10.19
2024-02-15T14:08:21.870Z,10.10
2024-02-15T14:10:48.726Z,10.19
2024-02-15T14:13:15.930Z,10.14
2024-02-15T14:15:44.478Z,10.19
2024-02-15T14:18:16.622Z,10.15
2024-02-15T14:20:44.571Z,10.16
2024-02-15T14:23:15.199Z,10.22
2024-02-15T14:25:43.646Z,10.17
2024-02-15T14:28:10.339Z,10.25
2024-02-15T14:30:56.150Z,10.13
2024-02-15T14:33:24.003Z,10.14
2024-02-15T14:35:54.677Z,10.09
2024-02-15T14:38:22.041Z,10.16
2024-02-15T14:40:56.392Z,10.08
2024-02-15T14:43:25.702Z,10.13
2024-02-15T14:45:54.050Z,10.05
2024-02-15T14:48:21.911Z,10.05
2024-02-15T14:50:52.107Z,10.04
2024-02-15T14:53:20.126Z,10.00
2024-02-15T14:55:48.225Z,9.98
2024-02-15T14:58:18.596Z,9.94
2024-02-15T15:00:47.646Z,9.89
2024-02-15T15:03:15.703Z,9.90
2024-02-15T15:06:01.917Z,9.78
2024-02-15T15:08:47.839Z,9.71
2024-02-15T15:11:33.584Z,9.60
2024-02-15T15:14:00.628Z,9.69
2024-02-15T15:16:29.394Z,9.67
2024-02-15T15:18:57.542Z,9.63
2024-02-15T15:21:25.229Z,9.60
2024-02-15T15:23:53.281Z,9.60
2024-02-15T15:26:22.227Z,9.60
2024-02-15T15:28:50.082Z,9.59
2024-02-15T15:31:18.293Z,9.61
2024-02-15T15:33:46.455Z,9.60
2024-02-15T15:36:13.799Z,9.52
2024-02-15T15:38:41.050Z,9.48
2024-02-15T15:41:11.070Z,9.42
2024-02-15T15:43:38.756Z,9.35
2024-02-15T15:46:06.541Z,9.43
2024-02-15T15:48:34.666Z,9.36
2024-02-15T15:51:06.125Z,9.29
2024-02-15T15:53:35.262Z,9.28
2024-02-15T15:56:03.175Z,9.19
2024-02-15T15:58:31.053Z,9.20
2024-02-15T16:00:57.924Z,9.18
2024-02-15T16:03:24.727Z,9.18
2024-02-15T16:05:52.294Z,9.13
2024-02-15T16:08:19.322Z,9.07
2024-02-15T16:10:46.496Z,9.03
2024-02-15T16:13:13.768Z,9.04
2024-02-15T16:15:44.930Z,9.03
2024-02-15T16:18:11.998Z,8.95
2024-02-15T16:20:39.650Z,8.87
2024-02-15T16:23:06.541Z,8.89
2024-02-15T16:25:33.488Z,8.87
2024-02-15T16:28:01.809Z,8.86
2024-02-15T16:30:29.070Z,8.83
2024-02-15T16:32:56.067Z,8.64
2024-02-15T16:35:23.891Z,8.71
2024-02-15T16:37:51.040Z,8.68
2024-02-15T16:40:17.985Z,8.61
2024-02-15T16:42:50.122Z,8.59
2024-02-15T16:45:20.922Z,8.52
2024-02-15T16:47:57.095Z,8.46
2024-02-15T16:50:24.576Z,8.43
2024-02-15T16:52:52.385Z,8.39
2024-02-15T16:55:31.264Z,8.32
2024-02-15T16:58:04.311Z,8.35
2024-02-15T17:00:32.341Z,8.22
2024-02-15T17:02:59.221Z,8.29
2024-02-15T17:05:27.617Z,8.19
2024-02-15T17:07:57.304Z,8.26
2024-02-15T17:10:25.917Z,8.34
2024-02-15T17:12:56.442Z,8.32
2024-02-15T17:15:30.234Z,8.32
2024-02-15T17:17:58.032Z,8.30
2024-02-15T17:20:25.469Z,8.25
2024-02-15T17:22:53.440Z,8.23
2024-02-15T17:25:24.466Z,8.19
2024-02-15T17:27:55.225Z,8.09
2024-02-15T17:30:22.219Z,8.05
2024-02-15T17:32:49.070Z,8.04
2024-02-15T17:35:18.372Z,8.07
2024-02-15T17:37:45.577Z,8.08
2024-02-15T17:40:13.208Z,7.87
2024-02-15T17:42:41.722Z,7.87
2024-02-15T17:45:13.993Z,7.93
2024-02-15T17:47:42.931Z,7.93
2024-02-15T17:50:12.547Z,7.91
2024-02-15T17:52:39.794Z,7.85
2024-02-15T17:55:10.394Z,7.91
2024-02-15T17:57:39.075Z,7.90
2024-02-15T18:00:13.906Z,7.90
2024-02-15T18:02:42.351Z,7.67
2024-02-15T18:05:11.570Z,7.65
2024-02-15T18:07:38.926Z,7.60
2024-02-15T18:10:06.802Z,7.66
2024-02-15T18:12:34.139Z,7.75
2024-02-15T18:15:01.160Z,7.75
2024-02-15T18:17:28.081Z,7.73
2024-02-15T18:19:55.177Z,7.72
2024-02-15T18:22:23.917Z,7.72
2024-02-15T18:24:50.692Z,7.72
2024-02-15T18:27:20.167Z,7.69
2024-02-15T18:29:47.178Z,7.60
2024-02-15T18:32:15.154Z,7.56
2024-02-15T18:34:43.515Z,7.62
2024-02-15T18:37:11.500Z,7.67
2024-02-15T18:39:38.346Z,7.64
2024-02-15T18:42:07.985Z,7.55
2024-02-15T18:44:36.046Z,7.58
2024-02-15T18:47:02.818Z,7.58
2024-02-15T18:49:34.486Z,7.40
2024-02-15T18:52:03.881Z,7.54
2024-02-15T18:54:31.595Z,7.54
2024-02-15T18:56:58.619Z,7.59
2024-02-15T18:59:26.631Z,7.61
2024-02-15T19:01:53.827Z,7.56
2024-02-15T19:04:20.790Z,7.28
2024-02-15T19:06:47.787Z,7.31
2024-02-15T19:09:14.736Z,7.14
2024-02-15T19:11:41.612Z,7.09
2024-02-15T19:14:10.556Z,7.11
2024-02-15T19:16:38.551Z,7.12
2024-02-15T19:19:10.367Z,7.11
2024-02-15T19:21:39.467Z,7.11
2024-02-15T19:24:08.758Z,7.13
2024-02-15T19:26:41.383Z,7.05
2024-02-15T19:29:08.624Z,7.10
2024-02-15T19:31:37.345Z,7.14
2024-02-15T19:34:08.384Z,7.00
2024-02-15T19:36:39.476Z,6.89
2024-02-15T19:39:11.680Z,6.93
2024-02-15T19:41:39.549Z,7.06
2024-02-15T19:44:09.279Z,6.98
2024-02-15T19:46:41.714Z,6.97
2024-02-15T19:49:12.425Z,6.99
2024-02-15T19:51:40.040Z,7.03
2024-02-15T19:54:06.863Z,7.06
2024-02-15T19:56:33.977Z,7.14
2024-02-15T19:59:01.791Z,7.15
2024-02-15T20:01:29.135Z,7.16
2024-02-15T20:03:57.339Z,7.14
2024-02-15T20:06:25.556Z,6.99
2024-02-15T20:08:52.958Z,7.01
2024-02-15T20:11:24.401Z,7.06
2024-02-15T20:13:52.498Z,7.08
2024-02-15T20:16:23.216Z,7.07
2024-02-15T20:18:53.645Z,7.10
2024-02-15T20:21:20.644Z,7.05
2024-02-15T20:23:47.633Z,7.04
2024-02-15T20:26:15.503Z,7.04
2024-02-15T20:28:42.501Z,7.05
2024-02-15T20:31:09.925Z,7.01
2024-02-15T20:33:38.778Z,6.96
2024-02-15T20:36:07.113Z,6.87
2024-02-15T20:38:34.380Z,6.88
2024-02-15T20:41:06.728Z,6.87
2024-02-15T20:43:34.051Z,6.93
2024-02-15T20:46:04.428Z,6.86
2024-02-15T20:48:32.314Z,6.89
2024-02-15T20:51:01.781Z,6.90
2024-02-15T20:53:28.840Z,6.88
2024-02-15T20:55:55.590Z,6.88
2024-02-15T20:58:22.449Z,6.78
2024-02-15T21:00:49.730Z,6.80
2024-02-15T21:03:16.563Z,6.81
2024-02-15T21:05:43.686Z,6.77
2024-02-15T21:08:10.683Z,6.78
2024-02-15T21:10:37.378Z,6.82
2024-02-15T21:13:04.241Z,6.82
2024-02-15T21:15:31.058Z,6.85
2024-02-15T21:17:57.976Z,6.79
2024-02-15T21:20:30.773Z,6.75
2024-02-15T21:22:59.806Z,6.75
2024-02-15T21:25:29.220Z,6.75
2024-02-15T21:27:57.051Z,6.79
2024-02-15T21:30:23.774Z,6.80
2024-02-15T21:32:51.970Z,6.80
2024-02-15T21:35:20.567Z,6.68
2024-02-15T21:37:48.666Z,6.69
2024-02-15T21:40:16.627Z,6.65
2024-02-15T21:42:43.319Z,6.62
2024-02-15T21:45:13.315Z,6.61
2024-02-15T21:47:45.106Z,6.62
2024-02-15T21:50:12.176Z,6.68
2024-02-15T21:52:38.997Z,6.77
2024-02-15T21:55:06.352Z,6.74
2024-02-15T21:57:33.678Z,6.59
2024-02-15T22:00:00.940Z,6.68
2024-02-15T22:02:28.353Z,6.67
2024-02-15T22:04:55.470Z,6.72
2024-02-15T22:07:24.696Z,6.71
2024-02-15T22:09:53.006Z,6.69
2024-02-15T22:12:19.680Z,6.75
2024-02-15T22:14:46.754Z,6.78
2024-02-15T22:17:13.625Z,6.66
2024-02-15T22:19:40.534Z,6.72
2024-02-15T22:22:09.267Z,6.62
2024-02-15T22:24:36.071Z,6.65
2024-02-15T22:27:04.632Z,6.58
2024-02-15T22:29:32.829Z,6.63
2024-02-15T22:31:59.800Z,6.62
2024-02-15T22:34:26.795Z,6.51
2024-02-15T22:36:53.702Z,6.64
2024-02-15T22:39:20.485Z,6.68
2024-02-15T22:41:47.295Z,6.76
2024-02-15T22:44:14.134Z,6.71
2024-02-15T22:46:48.446Z,6.75
2024-02-15T22:49:17.649Z,6.73
2024-02-15T22:51:45.254Z,6.63
2024-02-15T22:54:12.080Z,6.55
2024-02-15T22:56:39.184Z,6.58
2024-02-15T22:59:06.090Z,6.53
2024-02-15T23:01:33.060Z,6.54
2024-02-15T23:03:59.932Z,6.43
2024-02-15T23:06:27.050Z,6.45
2024-02-15T23:08:54.577Z,6.49
2024-02-15T23:11:21.473Z,6.49
2024-02-15T23:13:48.547Z,6.47
2024-02-15T23:16:15.210Z,6.46
2024-02-15T23:18:42.166Z,6.46
2024-02-15T23:21:09.294Z,6.42
2024-02-15T23:23:36.229Z,6.37
2024-02-15T23:26:03.162Z,6.41
2024-02-15T23:28:30.050Z,6.52
2024-02-15T23:30:56.747Z,6.59
2024-02-15T23:33:23.800Z,6.58
2024-02-15T23:36:09.220Z,6.58
2024-02-15T23:38:54.799Z,6.62
2024-02-15T23:41:21.602Z,6.57
2024-02-15T23:43:48.291Z,6.63
2024-02-15T23:46:15.675Z,6.48
2024-02-15T23:48:43.197Z,6.54
2024-02-15T23:51:10.296Z,6.52
2024-02-15T23:53:37.038Z,6.51
2024-02-15T23:56:06.130Z,6.49
2024-02-15T23:58:33.419Z,6.38
